sensor_id;sensor_type;location;lat;lon;timestamp;temperature;humidity
4757;DHT22;2392;52.578;13.426;2024-03-17T00:01:35;5.10;99.90
4757;DHT22;2392;52.578;13.426;2024-03-17T00:04:02;5.10;99.90
4757;DHT22;2392;52.578;13.426;2024-03-17T00:06:29;5.00;99.90
4757;DHT22;2392;52.578;13.426;2024-03-17T00:08:56;5.10;99.90
4757;DHT22;2392;52.578;13.426;2024-03-17T00:11:22;5.00;99.90
4757;DHT22;2392;52.578;13.426;2024-03-17T00:13:48;5.10;99.90
4757;DHT22;2392;52.578;13.426;2024-03-17T00:16:15;4.90;99.90
4757;DHT22;2392;52.578;13.426;2024-03-17T00:18:44;4.90;99.90
4757;DHT22;2392;52.578;13.426;2024-03-17T00:21:11;4.90;99.90
4757;DHT22;2392;52.578;13.426;2024-03-17T00:23:39;4.90;99.90
4757;DHT22;2392;52.578;13.426;2024-03-17T00:26:05;4.90;99.90
4757;DHT22;2392;52.578;13.426;2024-03-17T00:28:31;4.90;99.90
4757;DHT22;2392;52.578;13.426;2024-03-17T00:30:58;5.00;99.90
4757;DHT22;2392;52.578;13.426;2024-03-17T00:33:23;5.00;99.90
4757;DHT22;2392;52.578;13.426;2024-03-17T00:35:50;4.90;99.90
4757;DHT22;2392;52.578;13.426;2024-03-17T00:38:16;4.80;99.90
4757;DHT22;2392;52.578;13.426;2024-03-17T00:40:45;4.80;99.90
4757;DHT22;2392;52.578;13.426;2024-03-17T00:43:11;4.90;99.90
4757;DHT22;2392;52.578;13.426;2024-03-17T00:45:37;4.80;99.90
4757;DHT22;2392;52.578;13.426;2024-03-17T00:48:04;4.80;99.90
4757;DHT22;2392;52.578;13.426;2024-03-17T00:50:31;4.80;99.90
4757;DHT22;2392;52.578;13.426;2024-03-17T00:52:57;4.80;99.90
4757;DHT22;2392;52.578;13.426;2024-03-17T00:55:24;4.80;99.90
4757;DHT22;2392;52.578;13.426;2024-03-17T00:57:51;4.80;99.90
4757;DHT22;2392;52.578;13.426;2024-03-17T01:00:18;4.80;99.90
4757;DHT22;2392;52.578;13.426;2024-03-17T01:02:44;4.80;99.90
4757;DHT22;2392;52.578;13.426;2024-03-17T01:05:10;4.80;99.90
4757;DHT22;2392;52.578;13.426;2024-03-17T01:07:36;4.70;99.90
4757;DHT22;2392;52.578;13.426;2024-03-17T01:10:03;4.70;99.90
4757;DHT22;2392;52.578;13.426;2024-03-17T01:12:29;4.70;99.90
4757;DHT22;2392;52.578;13.426;2024-03-17T01:14:57;4.60;99.90
4757;DHT22;2392;52.578;13.426;2024-03-17T01:17:23;4.60;99.90
4757;DHT22;2392;52.578;13.426;2024-03-17T01:19:49;4.50;99.90
4757;DHT22;2392;52.578;13.426;2024-03-17T01:22:17;4.60;99.90
4757;DHT22;2392;52.578;13.426;2024-03-17T01:24:43;4.60;99.90
4757;DHT22;2392;52.578;13.426;2024-03-17T01:27:11;4.60;99.90
4757;DHT22;2392;52.578;13.426;2024-03-17T01:29:41;4.60;99.90
4757;DHT22;2392;52.578;13.426;2024-03-17T01:32:08;4.60;99.90
4757;DHT22;2392;52.578;13.426;2024-03-17T01:34:36;4.60;99.90
4757;DHT22;2392;52.578;13.426;2024-03-17T01:37:02;4.60;99.90
4757;DHT22;2392;52.578;13.426;2024-03-17T01:39:29;4.50;99.90
4757;DHT22;2392;52.578;13.426;2024-03-17T01:41:55;4.60;99.90
4757;DHT22;2392;52.578;13.426;2024-03-17T01:44:23;4.50;99.90
4757;DHT22;2392;52.578;13.426;2024-03-17T01:46:50;4.50;99.90
4757;DHT22;2392;52.578;13.426;2024-03-17T01:49:18;4.50;99.90
4757;DHT22;2392;52.578;13.426;2024-03-17T01:51:44;4.50;99.90
4757;DHT22;2392;52.578;13.426;2024-03-17T01:54:12;4.50;99.90
4757;DHT22;2392;52.578;13.426;2024-03-17T01:56:39;4.50;99.90
4757;DHT22;2392;52.578;13.426;2024-03-17T01:59:07;4.50;99.90
4757;DHT22;2392;52.578;13.426;2024-03-17T02:01:33;4.50;99.90
4757;DHT22;2392;52.578;13.426;2024-03-17T02:03:59;4.50;99.90
4757;DHT22;2392;52.578;13.426;2024-03-17T02:06:26;4.50;99.90
4757;DHT22;2392;52.578;13.426;2024-03-17T02:08:54;4.60;99.90
4757;DHT22;2392;52.578;13.426;2024-03-17T02:11:25;4.60;99.90
4757;DHT22;2392;52.578;13.426;2024-03-17T02:13:52;4.60;99.90
4757;DHT22;2392;52.578;13.426;2024-03-17T02:16:18;4.60;99.90
4757;DHT22;2392;52.578;13.426;2024-03-17T02:18:45;4.60;99.90
4757;DHT22;2392;52.578;13.426;2024-03-17T02:21:12;4.50;99.90
4757;DHT22;2392;52.578;13.426;2024-03-17T02:23:40;4.50;99.90
4757;DHT22;2392;52.578;13.426;2024-03-17T02:26:05;4.50;99.90
4757;DHT22;2392;52.578;13.426;2024-03-17T02:28:39;4.50;99.90
4757;DHT22;2392;52.578;13.426;2024-03-17T02:31:06;4.40;99.90
4757;DHT22;2392;52.578;13.426;2024-03-17T02:33:33;4.40;99.90
4757;DHT22;2392;52.578;13.426;2024-03-17T02:35:59;4.30;99.90
4757;DHT22;2392;52.578;13.426;2024-03-17T02:38:26;4.30;99.90
4757;DHT22;2392;52.578;13.426;2024-03-17T02:41:08;4.40;99.90
4757;DHT22;2392;52.578;13.426;2024-03-17T02:43:35;4.40;99.90
4757;DHT22;2392;52.578;13.426;2024-03-17T02:46:02;4.30;99.90
4757;DHT22;2392;52.578;13.426;2024-03-17T02:48:30;4.30;99.90
4757;DHT22;2392;52.578;13.426;2024-03-17T02:50:57;4.20;99.90
4757;DHT22;2392;52.578;13.426;2024-03-17T02:53:24;4.20;99.90
4757;DHT22;2392;52.578;13.426;2024-03-17T02:55:50;4.20;99.90
4757;DHT22;2392;52.578;13.426;2024-03-17T02:58:18;4.20;99.90
4757;DHT22;2392;52.578;13.426;2024-03-17T03:00:45;4.20;99.90
4757;DHT22;2392;52.578;13.426;2024-03-17T03:03:12;4.20;99.90
4757;DHT22;2392;52.578;13.426;2024-03-17T03:05:38;4.20;99.90
4757;DHT22;2392;52.578;13.426;2024-03-17T03:08:05;4.10;99.90
4757;DHT22;2392;52.578;13.426;2024-03-17T03:10:32;4.10;99.90
4757;DHT22;2392;52.578;13.426;2024-03-17T03:13:01;4.10;99.90
4757;DHT22;2392;52.578;13.426;2024-03-17T03:15:30;4.00;99.90
4757;DHT22;2392;52.578;13.426;2024-03-17T03:17:57;4.00;99.90
4757;DHT22;2392;52.578;13.426;2024-03-17T03:20:24;4.00;99.90
4757;DHT22;2392;52.578;13.426;2024-03-17T03:22:50;3.90;99.90
4757;DHT22;2392;52.578;13.426;2024-03-17T03:25:17;3.90;99.90
4757;DHT22;2392;52.578;13.426;2024-03-17T03:27:44;3.90;99.90
4757;DHT22;2392;52.578;13.426;2024-03-17T03:30:11;3.90;99.90
4757;DHT22;2392;52.578;13.426;2024-03-17T03:32:39;3.90;99.90
4757;DHT22;2392;52.578;13.426;2024-03-17T03:35:06;3.80;99.90
4757;DHT22;2392;52.578;13.426;2024-03-17T03:37:33;3.80;99.90
4757;DHT22;2392;52.578;13.426;2024-03-17T03:40:00;3.80;99.90
4757;DHT22;2392;52.578;13.426;2024-03-17T03:42:26;3.70;99.90
4757;DHT22;2392;52.578;13.426;2024-03-17T03:44:53;3.70;99.90
4757;DHT22;2392;52.578;13.426;2024-03-17T03:47:20;3.70;99.90
4757;DHT22;2392;52.578;13.426;2024-03-17T03:49:48;3.70;99.90
4757;DHT22;2392;52.578;13.426;2024-03-17T03:52:14;3.70;99.90
4757;DHT22;2392;52.578;13.426;2024-03-17T03:54:41;3.70;99.90
4757;DHT22;2392;52.578;13.426;2024-03-17T03:57:08;3.60;99.90
4757;DHT22;2392;52.578;13.426;2024-03-17T03:59:35;3.60;99.90
4757;DHT22;2392;52.578;13.426;2024-03-17T04:02:01;3.70;99.90
4757;DHT22;2392;52.578;13.426;2024-03-17T04:04:28;3.60;99.90
4757;DHT22;2392;52.578;13.426;2024-03-17T04:06:56;3.60;99.90
4757;DHT22;2392;52.578;13.426;2024-03-17T04:09:23;3.60;99.90
4757;DHT22;2392;52.578;13.426;2024-03-17T04:11:50;3.50;99.90
4757;DHT22;2392;52.578;13.426;2024-03-17T04:14:17;3.50;99.90
4757;DHT22;2392;52.578;13.426;2024-03-17T04:16:44;3.50;99.90
4757;DHT22;2392;52.578;13.426;2024-03-17T04:19:11;3.50;99.90
4757;DHT22;2392;52.578;13.426;2024-03-17T04:21:39;3.50;99.90
4757;DHT22;2392;52.578;13.426;2024-03-17T04:24:07;3.40;99.90
4757;DHT22;2392;52.578;13.426;2024-03-17T04:26:34;3.40;99.90
4757;DHT22;2392;52.578;13.426;2024-03-17T04:29:01;3.40;99.90
4757;DHT22;2392;52.578;13.426;2024-03-17T04:31:27;3.40;99.90
4757;DHT22;2392;52.578;13.426;2024-03-17T04:33:54;3.40;99.90
4757;DHT22;2392;52.578;13.426;2024-03-17T04:36:21;3.40;99.90
4757;DHT22;2392;52.578;13.426;2024-03-17T04:38:47;3.40;99.90
4757;DHT22;2392;52.578;13.426;2024-03-17T04:41:16;3.40;99.90
4757;DHT22;2392;52.578;13.426;2024-03-17T04:43:44;3.40;99.90
4757;DHT22;2392;52.578;13.426;2024-03-17T04:46:11;3.30;99.90
4757;DHT22;2392;52.578;13.426;2024-03-17T04:48:39;3.30;99.90
4757;DHT22;2392;52.578;13.426;2024-03-17T04:51:05;3.30;99.90
4757;DHT22;2392;52.578;13.426;2024-03-17T04:53:32;3.30;99.90
4757;DHT22;2392;52.578;13.426;2024-03-17T04:56:00;3.30;99.90
4757;DHT22;2392;52.578;13.426;2024-03-17T04:58:28;3.20;99.90
4757;DHT22;2392;52.578;13.426;2024-03-17T05:00:55;3.30;99.90
4757;DHT22;2392;52.578;13.426;2024-03-17T05:03:22;3.20;99.90
4757;DHT22;2392;52.578;13.426;2024-03-17T05:05:58;3.20;99.90
4757;DHT22;2392;52.578;13.426;2024-03-17T05:08:26;3.20;99.90
4757;DHT22;2392;52.578;13.426;2024-03-17T05:10:56;3.10;99.90
4757;DHT22;2392;52.578;13.426;2024-03-17T05:13:23;3.10;99.90
4757;DHT22;2392;52.578;13.426;2024-03-17T05:15:51;3.10;99.90
4757;DHT22;2392;52.578;13.426;2024-03-17T05:18:17;3.10;99.90
4757;DHT22;2392;52.578;13.426;2024-03-17T05:20:45;3.00;99.90
4757;DHT22;2392;52.578;13.426;2024-03-17T05:23:12;3.00;99.90
4757;DHT22;2392;52.578;13.426;2024-03-17T05:25:39;3.00;99.90
4757;DHT22;2392;52.578;13.426;2024-03-17T05:28:06;3.00;99.90
4757;DHT22;2392;52.578;13.426;2024-03-17T05:30:35;3.00;99.90
4757;DHT22;2392;52.578;13.426;2024-03-17T05:33:04;3.00;99.90
4757;DHT22;2392;52.578;13.426;2024-03-17T05:35:31;3.00;99.90
4757;DHT22;2392;52.578;13.426;2024-03-17T05:37:57;3.00;99.90
4757;DHT22;2392;52.578;13.426;2024-03-17T05:40:24;2.90;99.90
4757;DHT22;2392;52.578;13.426;2024-03-17T05:42:50;2.90;99.90
4757;DHT22;2392;52.578;13.426;2024-03-17T05:45:17;2.90;99.90
4757;DHT22;2392;52.578;13.426;2024-03-17T05:47:44;3.00;99.90
4757;DHT22;2392;52.578;13.426;2024-03-17T05:50:12;3.00;99.90
4757;DHT22;2392;52.578;13.426;2024-03-17T05:52:39;3.00;99.90
4757;DHT22;2392;52.578;13.426;2024-03-17T05:55:06;3.00;99.90
4757;DHT22;2392;52.578;13.426;2024-03-17T05:57:32;3.10;99.90
4757;DHT22;2392;52.578;13.426;2024-03-17T05:59:59;3.10;99.90
4757;DHT22;2392;52.578;13.426;2024-03-17T06:02:26;3.10;99.90
4757;DHT22;2392;52.578;13.426;2024-03-17T06:04:52;3.00;99.90
4757;DHT22;2392;52.578;13.426;2024-03-17T06:07:20;3.10;99.90
4757;DHT22;2392;52.578;13.426;2024-03-17T06:09:47;3.10;99.90
4757;DHT22;2392;52.578;13.426;2024-03-17T06:12:15;3.10;99.90
4757;DHT22;2392;52.578;13.426;2024-03-17T06:14:41;3.20;99.90
4757;DHT22;2392;52.578;13.426;2024-03-17T06:17:08;3.20;99.90
4757;DHT22;2392;52.578;13.426;2024-03-17T06:19:34;3.20;99.90
4757;DHT22;2392;52.578;13.426;2024-03-17T06:22:01;3.20;99.90
4757;DHT22;2392;52.578;13.426;2024-03-17T06:24:29;3.30;99.90
4757;DHT22;2392;52.578;13.426;2024-03-17T06:26:56;3.30;99.90
4757;DHT22;2392;52.578;13.426;2024-03-17T06:29:23;3.20;99.90
4757;DHT22;2392;52.578;13.426;2024-03-17T06:31:50;3.30;99.90
4757;DHT22;2392;52.578;13.426;2024-03-17T06:34:16;3.40;99.90
4757;DHT22;2392;52.578;13.426;2024-03-17T06:36:43;3.40;99.90
4757;DHT22;2392;52.578;13.426;2024-03-17T06:39:10;3.50;99.90
4757;DHT22;2392;52.578;13.426;2024-03-17T06:41:42;3.50;99.90
4757;DHT22;2392;52.578;13.426;2024-03-17T06:44:09;3.60;99.90
4757;DHT22;2392;52.578;13.426;2024-03-17T06:46:36;3.70;99.90
4757;DHT22;2392;52.578;13.426;2024-03-17T06:49:02;3.70;99.90
4757;DHT22;2392;52.578;13.426;2024-03-17T06:51:29;3.90;99.90
4757;DHT22;2392;52.578;13.426;2024-03-17T06:53:55;3.90;99.90
4757;DHT22;2392;52.578;13.426;2024-03-17T06:56:22;4.00;99.90
4757;DHT22;2392;52.578;13.426;2024-03-17T06:58:50;4.10;99.90
4757;DHT22;2392;52.578;13.426;2024-03-17T07:01:19;4.10;99.90
4757;DHT22;2392;52.578;13.426;2024-03-17T07:03:46;4.20;99.90
4757;DHT22;2392;52.578;13.426;2024-03-17T07:06:12;4.30;99.90
4757;DHT22;2392;52.578;13.426;2024-03-17T07:08:39;4.40;99.90
4757;DHT22;2392;52.578;13.426;2024-03-17T07:11:07;4.50;99.90
4757;DHT22;2392;52.578;13.426;2024-03-17T07:13:35;4.70;99.90
4757;DHT22;2392;52.578;13.426;2024-03-17T07:16:04;4.80;99.90
4757;DHT22;2392;52.578;13.426;2024-03-17T07:18:32;4.90;99.90
4757;DHT22;2392;52.578;13.426;2024-03-17T07:21:00;5.00;99.90
4757;DHT22;2392;52.578;13.426;2024-03-17T07:23:28;5.10;99.90
4757;DHT22;2392;52.578;13.426;2024-03-17T07:25:55;5.10;99.90
4757;DHT22;2392;52.578;13.426;2024-03-17T07:28:22;5.20;99.90
4757;DHT22;2392;52.578;13.426;2024-03-17T07:30:49;5.30;99.90
4757;DHT22;2392;52.578;13.426;2024-03-17T07:33:18;5.40;99.90
4757;DHT22;2392;52.578;13.426;2024-03-17T07:35:47;5.50;99.90
4757;DHT22;2392;52.578;13.426;2024-03-17T07:38:14;5.50;99.90
4757;DHT22;2392;52.578;13.426;2024-03-17T07:40:41;5.60;99.90
4757;DHT22;2392;52.578;13.426;2024-03-17T07:43:07;5.60;99.90
4757;DHT22;2392;52.578;13.426;2024-03-17T07:45:34;5.60;99.90
4757;DHT22;2392;52.578;13.426;2024-03-17T07:48:01;5.70;99.90
4757;DHT22;2392;52.578;13.426;2024-03-17T07:50:29;5.80;99.90
4757;DHT22;2392;52.578;13.426;2024-03-17T07:52:55;5.90;99.90
4757;DHT22;2392;52.578;13.426;2024-03-17T07:55:22;6.10;99.90
4757;DHT22;2392;52.578;13.426;2024-03-17T07:57:49;6.20;99.90
4757;DHT22;2392;52.578;13.426;2024-03-17T08:00:16;6.30;99.90
4757;DHT22;2392;52.578;13.426;2024-03-17T08:02:44;6.30;99.90
4757;DHT22;2392;52.578;13.426;2024-03-17T08:05:11;6.40;99.90
4757;DHT22;2392;52.578;13.426;2024-03-17T08:07:40;6.50;99.90
4757;DHT22;2392;52.578;13.426;2024-03-17T08:10:07;6.50;99.90
4757;DHT22;2392;52.578;13.426;2024-03-17T08:12:34;6.60;99.90
4757;DHT22;2392;52.578;13.426;2024-03-17T08:15:01;6.70;99.90
4757;DHT22;2392;52.578;13.426;2024-03-17T08:17:27;6.80;99.90
4757;DHT22;2392;52.578;13.426;2024-03-17T08:19:54;6.80;99.90
4757;DHT22;2392;52.578;13.426;2024-03-17T08:22:21;6.80;99.90
4757;DHT22;2392;52.578;13.426;2024-03-17T08:24:49;6.80;99.90
4757;DHT22;2392;52.578;13.426;2024-03-17T08:27:16;6.80;99.90
4757;DHT22;2392;52.578;13.426;2024-03-17T08:29:42;6.80;99.90
4757;DHT22;2392;52.578;13.426;2024-03-17T08:32:09;6.80;99.90
4757;DHT22;2392;52.578;13.426;2024-03-17T08:34:36;6.80;99.90
4757;DHT22;2392;52.578;13.426;2024-03-17T08:37:03;6.80;99.90
4757;DHT22;2392;52.578;13.426;2024-03-17T08:39:29;6.90;99.90
4757;DHT22;2392;52.578;13.426;2024-03-17T08:41:57;6.90;99.90
4757;DHT22;2392;52.578;13.426;2024-03-17T08:44:24;7.00;99.90
4757;DHT22;2392;52.578;13.426;2024-03-17T08:46:51;7.20;99.90
4757;DHT22;2392;52.578;13.426;2024-03-17T08:49:18;7.30;99.90
4757;DHT22;2392;52.578;13.426;2024-03-17T08:51:44;7.40;99.90
4757;DHT22;2392;52.578;13.426;2024-03-17T08:54:11;7.30;99.90
4757;DHT22;2392;52.578;13.426;2024-03-17T08:56:37;7.50;99.90
4757;DHT22;2392;52.578;13.426;2024-03-17T08:59:05;7.60;99.90
4757;DHT22;2392;52.578;13.426;2024-03-17T09:01:32;7.70;99.90
4757;DHT22;2392;52.578;13.426;2024-03-17T09:03:59;7.80;99.90
4757;DHT22;2392;52.578;13.426;2024-03-17T09:06:26;7.90;99.90
4757;DHT22;2392;52.578;13.426;2024-03-17T09:08:55;8.10;99.90
4757;DHT22;2392;52.578;13.426;2024-03-17T09:11:22;8.20;99.90
4757;DHT22;2392;52.578;13.426;2024-03-17T09:13:51;8.30;99.90
4757;DHT22;2392;52.578;13.426;2024-03-17T09:16:19;8.10;99.90
4757;DHT22;2392;52.578;13.426;2024-03-17T09:18:48;8.00;99.90
4757;DHT22;2392;52.578;13.426;2024-03-17T09:21:15;7.80;99.90
4757;DHT22;2392;52.578;13.426;2024-03-17T09:23:43;7.80;99.90
4757;DHT22;2392;52.578;13.426;2024-03-17T09:26:10;7.80;99.90
4757;DHT22;2392;52.578;13.426;2024-03-17T09:28:39;8.00;99.90
4757;DHT22;2392;52.578;13.426;2024-03-17T09:31:06;8.30;99.90
4757;DHT22;2392;52.578;13.426;2024-03-17T09:33:44;8.60;99.90
4757;DHT22;2392;52.578;13.426;2024-03-17T09:36:11;9.00;99.90
4757;DHT22;2392;52.578;13.426;2024-03-17T09:38:38;9.40;99.90
4757;DHT22;2392;52.578;13.426;2024-03-17T09:41:06;9.40;99.90
4757;DHT22;2392;52.578;13.426;2024-03-17T09:43:34;9.50;99.90
4757;DHT22;2392;52.578;13.426;2024-03-17T09:46:02;9.40;99.90
4757;DHT22;2392;52.578;13.426;2024-03-17T09:48:29;9.50;99.90
4757;DHT22;2392;52.578;13.426;2024-03-17T09:50:59;9.50;99.90
4757;DHT22;2392;52.578;13.426;2024-03-17T09:53:27;9.50;99.90
4757;DHT22;2392;52.578;13.426;2024-03-17T09:55:57;9.30;99.90
4757;DHT22;2392;52.578;13.426;2024-03-17T09:58:24;9.20;99.90
4757;DHT22;2392;52.578;13.426;2024-03-17T10:00:51;9.30;99.90
4757;DHT22;2392;52.578;13.426;2024-03-17T10:03:44;9.30;99.90
4757;DHT22;2392;52.578;13.426;2024-03-17T10:06:14;9.40;99.90
4757;DHT22;2392;52.578;13.426;2024-03-17T10:08:45;9.50;99.90
4757;DHT22;2392;52.578;13.426;2024-03-17T10:11:11;9.50;99.90
4757;DHT22;2392;52.578;13.426;2024-03-17T10:13:39;9.50;99.90
4757;DHT22;2392;52.578;13.426;2024-03-17T10:16:06;10.40;99.90
4757;DHT22;2392;52.578;13.426;2024-03-17T10:18:33;11.70;99.90
4757;DHT22;2392;52.578;13.426;2024-03-17T10:21:00;13.00;99.90
4757;DHT22;2392;52.578;13.426;2024-03-17T10:23:28;14.60;99.90
4757;DHT22;2392;52.578;13.426;2024-03-17T10:25:55;14.90;99.90
4757;DHT22;2392;52.578;13.426;2024-03-17T10:28:22;14.40;99.90
4757;DHT22;2392;52.578;13.426;2024-03-17T10:30:58;14.00;99.90
4757;DHT22;2392;52.578;13.426;2024-03-17T10:33:26;13.20;99.90
4757;DHT22;2392;52.578;13.426;2024-03-17T10:35:58;12.50;99.90
4757;DHT22;2392;52.578;13.426;2024-03-17T10:38:26;13.40;99.90
4757;DHT22;2392;52.578;13.426;2024-03-17T10:40:55;14.10;99.60
4757;DHT22;2392;52.578;13.426;2024-03-17T10:43:21;15.00;98.70
4757;DHT22;2392;52.578;13.426;2024-03-17T10:45:52;14.90;97.40
4757;DHT22;2392;52.578;13.426;2024-03-17T10:48:20;13.60;97.60
4757;DHT22;2392;52.578;13.426;2024-03-17T10:50:49;13.80;99.30
4757;DHT22;2392;52.578;13.426;2024-03-17T10:53:19;15.50;98.50
4757;DHT22;2392;52.578;13.426;2024-03-17T10:56:00;16.90;96.70
4757;DHT22;2392;52.578;13.426;2024-03-17T10:58:33;17.60;94.90
4757;DHT22;2392;52.578;13.426;2024-03-17T11:01:01;18.20;93.40
4757;DHT22;2392;52.578;13.426;2024-03-17T11:03:30;19.20;91.90
4757;DHT22;2392;52.578;13.426;2024-03-17T11:05:58;19.10;90.80
4757;DHT22;2392;52.578;13.426;2024-03-17T11:08:25;18.50;90.60
4757;DHT22;2392;52.578;13.426;2024-03-17T11:10:53;18.30;90.70
4757;DHT22;2392;52.578;13.426;2024-03-17T11:13:26;18.30;90.00
4757;DHT22;2392;52.578;13.426;2024-03-17T11:15:54;18.70;88.40
4757;DHT22;2392;52.578;13.426;2024-03-17T11:18:35;18.90;87.80
4757;DHT22;2392;52.578;13.426;2024-03-17T11:21:03;18.10;85.30
4757;DHT22;2392;52.578;13.426;2024-03-17T11:23:35;17.50;86.90
4757;DHT22;2392;52.578;13.426;2024-03-17T11:26:03;17.20;87.60
4757;DHT22;2392;52.578;13.426;2024-03-17T11:28:46;16.70;88.40
4757;DHT22;2392;52.578;13.426;2024-03-17T11:31:35;15.50;89.70
4757;DHT22;2392;52.578;13.426;2024-03-17T11:34:04;14.40;89.80
4757;DHT22;2392;52.578;13.426;2024-03-17T11:36:34;14.60;91.10
4757;DHT22;2392;52.578;13.426;2024-03-17T11:39:03;16.00;90.90
4757;DHT22;2392;52.578;13.426;2024-03-17T11:41:36;18.00;88.30
4757;DHT22;2392;52.578;13.426;2024-03-17T11:44:15;18.90;85.00
4757;DHT22;2392;52.578;13.426;2024-03-17T11:46:41;19.20;83.50
4757;DHT22;2392;52.578;13.426;2024-03-17T11:49:18;20.00;81.70
4757;DHT22;2392;52.578;13.426;2024-03-17T11:51:44;20.50;81.20
4757;DHT22;2392;52.578;13.426;2024-03-17T11:54:14;21.00;79.30
4757;DHT22;2392;52.578;13.426;2024-03-17T11:56:44;20.20;78.00
4757;DHT22;2392;52.578;13.426;2024-03-17T11:59:11;19.10;80.00
4757;DHT22;2392;52.578;13.426;2024-03-17T12:01:39;18.60;80.40
4757;DHT22;2392;52.578;13.426;2024-03-17T12:04:06;17.80;79.90
4757;DHT22;2392;52.578;13.426;2024-03-17T12:06:33;17.10;81.60
4757;DHT22;2392;52.578;13.426;2024-03-17T12:09:11;16.10;83.80
4757;DHT22;2392;52.578;13.426;2024-03-17T12:11:42;15.10;85.70
4757;DHT22;2392;52.578;13.426;2024-03-17T12:14:15;14.60;87.20
4757;DHT22;2392;52.578;13.426;2024-03-17T12:16:53;15.30;88.70
4757;DHT22;2392;52.578;13.426;2024-03-17T12:19:20;15.70;83.90
4757;DHT22;2392;52.578;13.426;2024-03-17T12:21:49;16.60;85.30
4757;DHT22;2392;52.578;13.426;2024-03-17T12:24:17;17.00;84.10
4757;DHT22;2392;52.578;13.426;2024-03-17T12:26:45;16.50;82.80
4757;DHT22;2392;52.578;13.426;2024-03-17T12:29:22;15.80;83.80
4757;DHT22;2392;52.578;13.426;2024-03-17T12:31:52;15.30;84.70
4757;DHT22;2392;52.578;13.426;2024-03-17T12:34:18;14.50;85.30
4757;DHT22;2392;52.578;13.426;2024-03-17T12:36:45;13.70;87.60
4757;DHT22;2392;52.578;13.426;2024-03-17T12:39:17;13.20;88.30
4757;DHT22;2392;52.578;13.426;2024-03-17T12:41:44;12.50;88.10
4757;DHT22;2392;52.578;13.426;2024-03-17T12:44:21;12.70;90.40
4757;DHT22;2392;52.578;13.426;2024-03-17T12:46:48;13.00;89.50
4757;DHT22;2392;52.578;13.426;2024-03-17T12:49:22;12.90;89.00
4757;DHT22;2392;52.578;13.426;2024-03-17T12:51:50;13.00;89.80
4757;DHT22;2392;52.578;13.426;2024-03-17T12:54:21;12.90;90.20
4757;DHT22;2392;52.578;13.426;2024-03-17T12:56:46;12.80;90.20
4757;DHT22;2392;52.578;13.426;2024-03-17T12:59:38;12.70;90.70
4757;DHT22;2392;52.578;13.426;2024-03-17T13:02:23;12.80;90.50
4757;DHT22;2392;52.578;13.426;2024-03-17T13:05:12;12.80;89.80
4757;DHT22;2392;52.578;13.426;2024-03-17T13:07:39;13.00;90.20
4757;DHT22;2392;52.578;13.426;2024-03-17T13:10:07;13.70;88.30
4757;DHT22;2392;52.578;13.426;2024-03-17T13:12:33;14.20;88.00
4757;DHT22;2392;52.578;13.426;2024-03-17T13:15:00;14.50;87.20
4757;DHT22;2392;52.578;13.426;2024-03-17T13:17:27;14.60;86.60
4757;DHT22;2392;52.578;13.426;2024-03-17T13:19:56;14.50;89.20
4757;DHT22;2392;52.578;13.426;2024-03-17T13:22:24;14.10;88.20
4757;DHT22;2392;52.578;13.426;2024-03-17T13:24:51;13.70;88.70
4757;DHT22;2392;52.578;13.426;2024-03-17T13:29:53;12.80;90.40
4757;DHT22;2392;52.578;13.426;2024-03-17T13:32:20;12.70;91.10
4757;DHT22;2392;52.578;13.426;2024-03-17T13:34:47;12.80;90.80
4757;DHT22;2392;52.578;13.426;2024-03-17T13:37:13;12.70;90.20
4757;DHT22;2392;52.578;13.426;2024-03-17T13:39:41;12.70;91.20
4757;DHT22;2392;52.578;13.426;2024-03-17T13:42:08;12.50;90.80
4757;DHT22;2392;52.578;13.426;2024-03-17T13:44:35;12.30;91.00
4757;DHT22;2392;52.578;13.426;2024-03-17T13:47:01;12.10;91.10
4757;DHT22;2392;52.578;13.426;2024-03-17T13:49:29;11.90;90.70
4757;DHT22;2392;52.578;13.426;2024-03-17T13:51:55;11.80;91.00
4757;DHT22;2392;52.578;13.426;2024-03-17T13:54:22;11.70;91.20
4757;DHT22;2392;52.578;13.426;2024-03-17T13:56:50;11.70;91.50
4757;DHT22;2392;52.578;13.426;2024-03-17T13:59:17;11.70;91.60
4757;DHT22;2392;52.578;13.426;2024-03-17T14:01:44;11.70;92.30
4757;DHT22;2392;52.578;13.426;2024-03-17T14:04:13;11.70;92.10
4757;DHT22;2392;52.578;13.426;2024-03-17T14:06:41;11.60;92.10
4757;DHT22;2392;52.578;13.426;2024-03-17T14:09:08;11.70;92.60
4757;DHT22;2392;52.578;13.426;2024-03-17T14:11:36;11.90;92.60
4757;DHT22;2392;52.578;13.426;2024-03-17T14:14:04;12.30;92.30
4757;DHT22;2392;52.578;13.426;2024-03-17T14:16:31;12.40;91.50
4757;DHT22;2392;52.578;13.426;2024-03-17T14:18:58;12.60;92.10
4757;DHT22;2392;52.578;13.426;2024-03-17T14:21:25;12.90;91.10
4757;DHT22;2392;52.578;13.426;2024-03-17T14:23:52;13.20;90.60
4757;DHT22;2392;52.578;13.426;2024-03-17T14:26:19;13.20;90.50
4757;DHT22;2392;52.578;13.426;2024-03-17T14:28:46;12.90;90.50
4757;DHT22;2392;52.578;13.426;2024-03-17T14:31:15;12.70;90.80
4757;DHT22;2392;52.578;13.426;2024-03-17T14:33:42;12.60;91.30
4757;DHT22;2392;52.578;13.426;2024-03-17T14:36:09;12.20;91.50
4757;DHT22;2392;52.578;13.426;2024-03-17T14:38:36;11.70;91.90
4757;DHT22;2392;52.578;13.426;2024-03-17T14:41:03;11.40;91.90
4757;DHT22;2392;52.578;13.426;2024-03-17T14:43:30;11.10;92.30
4757;DHT22;2392;52.578;13.426;2024-03-17T14:45:56;11.10;92.50
4757;DHT22;2392;52.578;13.426;2024-03-17T14:48:24;11.10;92.60
4757;DHT22;2392;52.578;13.426;2024-03-17T14:50:51;10.90;92.70
4757;DHT22;2392;52.578;13.426;2024-03-17T14:53:18;10.70;92.70
4757;DHT22;2392;52.578;13.426;2024-03-17T14:55:45;10.60;93.00
4757;DHT22;2392;52.578;13.426;2024-03-17T14:58:12;10.50;93.20
4757;DHT22;2392;52.578;13.426;2024-03-17T15:00:39;10.50;93.60
4757;DHT22;2392;52.578;13.426;2024-03-17T15:03:07;10.40;93.60
4757;DHT22;2392;52.578;13.426;2024-03-17T15:05:35;10.10;93.00
4757;DHT22;2392;52.578;13.426;2024-03-17T15:08:02;10.10;92.50
4757;DHT22;2392;52.578;13.426;2024-03-17T15:10:28;10.00;92.70
4757;DHT22;2392;52.578;13.426;2024-03-17T15:12:55;9.80;93.40
4757;DHT22;2392;52.578;13.426;2024-03-17T15:15:22;9.70;93.20
4757;DHT22;2392;52.578;13.426;2024-03-17T15:17:48;9.60;93.50
4757;DHT22;2392;52.578;13.426;2024-03-17T15:20:16;9.70;93.40
4757;DHT22;2392;52.578;13.426;2024-03-17T15:22:47;9.60;93.80
4757;DHT22;2392;52.578;13.426;2024-03-17T15:25:16;9.50;93.80
4757;DHT22;2392;52.578;13.426;2024-03-17T15:27:43;9.50;93.70
4757;DHT22;2392;52.578;13.426;2024-03-17T15:30:12;9.50;93.70
4757;DHT22;2392;52.578;13.426;2024-03-17T15:32:40;9.50;93.70
4757;DHT22;2392;52.578;13.426;2024-03-17T15:35:08;9.40;94.10
4757;DHT22;2392;52.578;13.426;2024-03-17T15:37:35;9.40;94.10
4757;DHT22;2392;52.578;13.426;2024-03-17T15:40:04;9.40;94.20
4757;DHT22;2392;52.578;13.426;2024-03-17T15:42:31;9.50;94.80
4757;DHT22;2392;52.578;13.426;2024-03-17T15:44:58;9.50;94.70
4757;DHT22;2392;52.578;13.426;2024-03-17T15:47:25;9.50;94.40
4757;DHT22;2392;52.578;13.426;2024-03-17T15:49:52;9.60;94.40
4757;DHT22;2392;52.578;13.426;2024-03-17T15:52:19;9.60;94.80
4757;DHT22;2392;52.578;13.426;2024-03-17T15:54:45;9.50;94.70
4757;DHT22;2392;52.578;13.426;2024-03-17T15:57:13;9.50;95.00
4757;DHT22;2392;52.578;13.426;2024-03-17T15:59:40;9.60;95.40
4757;DHT22;2392;52.578;13.426;2024-03-17T16:02:07;9.60;94.60
4757;DHT22;2392;52.578;13.426;2024-03-17T16:04:36;9.60;94.80